Starbuck, Washington
Current Conditions -  °F | °C
As of 9:53 AM on Wednesday 28 Jan 2015 (Local Time) from KALW Reporting Station
Moderate Fog Moderate Fog  
Wind Chill: 31°   Ceiling: 200
Heat Index: 36°   Visibility: 0mi
Dew Point: 35°   Wind: 6mph
Humidity: 97%   Direction: 180°S
Pressure: 30.39"   Gusts: NA
Location:  46.52°N, 118.13°W
Report Text: KALW 281753Z 18005KT M1/4SM R20/0800V1000FT FG VV002 02/02 A3039 RMK AO2 SLP301 T00220017 10078 20006 53016
Loading
Personal Weather Stations






























Interactive Weather Map New forecast layout! Learn more

10-Day Weather Forecast

Advertisements
Track Severe Weather on mobile